Aeroporto :
LOGIN :

Iscrizione | Disclaimer

   EN    FR    IT 

 










Sommario :    VFR   VFR Marginale   IFR   IFR Intensivo   IFR Molto Intensivo
Visibilità : 
Base nubi : 
>= 8 km
>= 3000ft
5 / 8 km
1000 / 3000 ft
1500m / 5 km
500 / 1000 ft
800 / 1500m
200 / 500 ft
< 800m
< 200 ft
Simboli :   Temporali  Nebbia  Neve Forte  Precipitazioni Forti  Vento > 20 kt
SIGMETs :   Varie  Temporali  Ghiacco  Turbolenza  Onda orograficha  Ceneri Vulcaniche






- Altitudine del aeroporto : 656 ft
- Codice IATA : CMN


GMMN - Casablanca Mohammed V

ULTIMO METAR :
  • 061430Z 23012KT 9999 SCT020 BKN040 19/16 Q1017 NOSIG

METARs OBSOLETI :
  • 061400Z 23011KT 9999 SCT020 BKN040 18/16 Q1017 NOSIG
  • 061330Z 23015KT 190V250 9999 SCT020 BKN040 19/16 Q1017 NOSIG
  • 061300Z 23015KT 9999 BKN020 19/16 Q1017 NOSIG
  • 061230Z 23015KT 200V260 9999 BKN020 19/16 Q1017 NOSIG
  • 061200Z 23016KT 9999 BKN030 19/16 Q1017 NOSIG
  • 061130Z 23016KT 190V260 9999 BKN030 19/16 Q1017 NOSIG
  • 061100Z 23015KT 9999 BKN030 17/15 Q1018 NOSIG
  • 061030Z 23016KT 9999 SCT030 BKN050 17/15 Q1017 NOSIG
  • 061000Z 23014KT 9999 SCT030 BKN050 17/15 Q1017 NOSIG

TAF TAF GMMN
Valido dal 06 a 12 ore il 07 a 18 ore UTC


061100Z 0612/0718 22015KT 9999 BKN030
BECMG 0617/0620 26006KT
PROB30
TEMPO 0620/0708 3000 BR BKN006



MetMap, La meteo Aeronautica in un colpo d'occhio ! - Copyright ORBIFLY Dicembre 2007 - Disclaimer

ORBIFLY MET'MAP TEAM :

Programmazione e sviluppo : Alexandra Zaïnal
Concezione : Baudouin d'Aumeries
Supporto tecnico e logistico : Manuel Goepfert
Aiuto : Marc-Olivier Méhu
Aiuto per la traduzione : Arnaldo La Scala




FONTI E CREDITI :

   NOAA